Time;durP1;ratioP1;P1;durP2;ratioP2;P2;SDS_P1;SDS_P2;PMS_P1;PMS_P2;Temp;Humidity;BMP_temperature;BMP_pressure;BME280_temperature;BME280_humidity;BME280_pressure;Samples;Min_cycle;Max_cycle;Signal;HPM_P1;HPM_P2
2022/11/23 00:02:03;;;;;;;5.95;4.20;;;;;;;6.57;100.00;99567.28;5025307;28;20597;-74
2022/11/23 00:04:28;;;;;;;8.15;5.28;;;;;;;6.42;100.00;99553.09;5038986;28;20124;-74
2022/11/23 00:06:53;;;;;;;7.50;4.93;;;;;;;6.57;100.00;99572.50;5057551;28;20029;-74
2022/11/23 00:09:19;;;;;;;6.10;5.13;;;;;;;6.55;100.00;99569.25;5037188;28;20099;-74
2022/11/23 00:11:44;;;;;;;6.13;5.03;;;;;;;6.58;100.00;99581.22;5054424;28;20102;-74
2022/11/23 00:14:09;;;;;;;6.13;3.67;;;;;;;6.61;100.00;99569.59;5024337;28;20093;-74
2022/11/23 00:16:35;;;;;;;7.68;4.68;;;;;;;6.55;100.00;99555.31;5074167;28;20028;-74
2022/11/23 00:19:01;;;;;;;12.32;6.07;;;;;;;6.64;100.00;99574.53;5057436;28;20119;-74
2022/11/23 00:21:29;;;;;;;11.50;5.03;;;;;;;6.55;100.00;99557.94;5072301;28;20036;-75
2022/11/23 00:23:55;;;;;;;10.57;6.45;;;;;;;6.70;100.00;99576.53;5055218;28;20127;-74
2022/11/23 00:26:20;;;;;;;7.55;5.38;;;;;;;6.75;100.00;99579.50;5075147;28;20542;-74
2022/11/23 00:28:46;;;;;;;15.60;6.10;;;;;;;6.62;100.00;99558.13;5073102;28;20115;-74
2022/11/23 00:31:14;;;;;;;7.03;5.25;;;;;;;6.72;100.00;99577.19;5053465;28;20426;-74
2022/11/23 00:33:40;;;;;;;11.13;6.85;;;;;;;6.72;100.00;99585.06;5077982;28;20470;-74
2022/11/23 00:36:15;;;;;;;13.65;6.55;;;;;;;6.79;100.00;99581.66;5077563;28;20030;-74
2022/11/23 00:38:41;;;;;;;6.53;5.35;;;;;;;6.68;100.00;99560.94;5076419;28;20043;-74
2022/11/23 00:41:19;;;;;;;8.85;6.07;;;;;;;6.76;100.00;99581.16;5053557;28;20058;-74
2022/11/23 00:43:45;;;;;;;9.27;6.32;;;;;;;6.70;100.00;99572.09;5074950;28;20042;-74
2022/11/23 00:46:17;;;;;;;6.78;5.38;;;;;;;6.76;100.00;99581.16;5045508;28;20039;-74
2022/11/23 00:48:43;;;;;;;9.48;5.70;;;;;;;6.76;100.00;99589.03;5079663;28;20016;-74
2022/11/23 00:51:11;;;;;;;11.23;6.97;;;;;;;6.74;100.00;99578.69;5057988;28;20040;-74
2022/11/23 00:53:36;;;;;;;10.63;6.30;;;;;;;6.74;100.00;99581.28;5076930;28;20035;-74
2022/11/23 00:56:02;;;;;;;8.65;5.70;;;;;;;6.78;100.00;99581.81;5075410;28;20027;-74
2022/11/23 00:58:27;;;;;;;15.10;6.72;;;;;;;6.76;100.00;99581.16;5059737;28;20947;-74
2022/11/23 01:01:23;;;;;;;8.48;6.35;;;;;;;6.75;100.00;99582.97;5058439;28;20043;-74
2022/11/23 01:03:53;;;;;;;9.77;6.80;;;;;;;6.70;100.00;99573.91;5061223;28;20436;-74
2022/11/23 01:06:34;;;;;;;9.10;7.05;;;;;;;6.74;100.00;99588.34;5059626;28;20016;-74
2022/11/23 01:09:13;;;;;;;10.10;6.07;;;;;;;6.72;100.00;99577.19;5078664;28;20059;-74
2022/11/23 01:11:39;;;;;;;10.40;7.47;;;;;;;6.76;100.00;99595.06;5074261;28;20024;-73
2022/11/23 01:14:05;;;;;;;9.73;6.88;;;;;;;6.70;100.00;99577.34;5058801;28;20032;-73
2022/11/23 01:16:36;;;;;;;8.77;6.07;;;;;;;6.63;100.00;99580.75;5059820;28;20021;-74
2022/11/23 01:19:05;;;;;;;7.55;4.78;;;;;;;6.73;100.00;99597.22;5079213;28;20111;-74
2022/11/23 01:21:32;;;;;;;7.55;6.50;;;;;;;6.81;100.00;99605.09;5059253;28;20028;-74
2022/11/23 01:23:58;;;;;;;12.85;7.45;;;;;;;6.76;100.00;99586.41;5058596;28;20060;-74
2022/11/23 01:26:24;;;;;;;8.68;5.90;;;;;;;6.85;100.00;99611.69;5057796;28;20039;-74
2022/11/23 01:28:50;;;;;;;8.55;6.43;;;;;;;6.74;100.00;99599.66;5077789;28;20562;-75
2022/11/23 01:31:19;;;;;;;8.30;5.82;;;;;;;6.93;100.00;99614.34;5076695;28;20028;-74
2022/11/23 01:33:45;;;;;;;8.23;6.40;;;;;;;6.78;100.00;99594.94;5076549;28;20047;-74
2022/11/23 01:36:17;;;;;;;5.57;4.93;;;;;;;6.78;100.00;99595.75;5056390;28;20032;-75
2022/11/23 01:38:44;;;;;;;10.82;7.15;;;;;;;6.97;100.00;99615.69;5074496;28;20031;-74
2022/11/23 01:41:13;;;;;;;18.63;6.93;;;;;;;6.90;100.00;99604.19;5075078;28;20024;-73
2022/11/23 01:43:40;;;;;;;8.98;6.32;;;;;;;6.93;100.00;99614.34;5075866;28;20024;-74
2022/11/23 01:46:05;;;;;;;10.07;6.45;;;;;;;6.95;100.00;99611.56;5077055;28;20043;-74
2022/11/23 01:49:01;;;;;;;9.75;6.82;;;;;;;7.03;100.00;99608.16;5074972;28;20031;-74
2022/11/23 01:51:36;;;;;;;7.72;6.65;;;;;;;6.84;100.00;99581.19;5050863;28;20170;-74
2022/11/23 01:54:11;;;;;;;10.45;6.47;;;;;;;7.02;100.00;99609.16;5076570;28;20139;-74
2022/11/23 01:56:40;;;;;;;10.68;6.63;;;;;;;7.05;100.00;99609.63;5078067;28;20540;-74
2022/11/23 01:59:11;;;;;;;9.18;5.57;;;;;;;6.92;100.00;99586.47;5074904;28;20040;-75
2022/11/23 02:01:37;;;;;;;11.05;6.50;;;;;;;6.95;100.00;99601.91;5058189;28;20051;-74
2022/11/23 02:04:03;;;;;;;10.98;5.57;;;;;;;6.89;100.00;99592.03;5025849;28;20032;-74
2022/11/23 02:06:31;;;;;;;11.73;5.70;;;;;;;7.02;100.00;99609.16;5040228;28;20484;-74
2022/11/23 02:08:57;;;;;;;10.15;5.60;;;;;;;6.98;100.00;99612.06;5077282;28;20476;-73
2022/11/23 02:11:22;;;;;;;13.15;6.28;;;;;;;6.91;100.00;99600.56;5057914;28;20031;-73
2022/11/23 02:13:49;;;;;;;9.40;8.48;;;;;;;7.03;100.00;99616.03;5040924;28;20051;-73
2022/11/23 02:16:17;;;;;;;7.45;6.63;;;;;;;7.01;100.00;99616.16;5058817;28;20028;-74
2022/11/23 02:18:45;;;;;;;9.70;6.55;;;;;;;6.88;100.00;99600.03;5076748;28;20115;-74
2022/11/23 02:21:11;;;;;;;9.95;6.13;;;;;;;6.91;100.00;99600.56;5057473;28;20023;-74
2022/11/23 02:23:54;;;;;;;9.43;6.43;;;;;;;7.04;100.00;99612.44;5075684;28;20056;-74
2022/11/23 02:26:28;;;;;;;7.97;5.32;;;;;;;7.02;100.00;99611.78;5058039;28;20113;-74
2022/11/23 02:29:19;;;;;;;15.60;5.90;;;;;;;7.00;100.00;99610.09;5058133;28;20024;-74
2022/11/23 02:31:44;;;;;;;7.85;4.38;;;;;;;7.07;100.00;99614.72;5075127;28;20407;-74
2022/11/23 02:34:09;;;;;;;8.77;6.35;;;;;;;7.06;100.00;99613.91;5073607;28;20028;-74
2022/11/23 02:36:44;;;;;;;8.32;6.03;;;;;;;7.07;100.00;99614.72;5040434;28;20032;-74
2022/11/23 02:39:20;;;;;;;9.52;4.90;;;;;;;6.92;100.00;99585.63;5076291;28;20033;-74
2022/11/23 02:41:48;;;;;;;8.52;5.22;;;;;;;7.11;100.00;99616.06;5072903;28;20028;-74
2022/11/23 02:44:26;;;;;;;9.63;5.95;;;;;;;6.87;100.00;99583.50;5054540;28;20056;-74
2022/11/23 02:46:52;;;;;;;9.80;5.47;;;;;;;7.07;100.00;99620.78;5074704;28;20115;-74
2022/11/23 02:49:18;;;;;;;9.05;5.88;;;;;;;7.05;100.00;99611.44;5056350;28;20397;-75
2022/11/23 02:51:43;;;;;;;9.68;5.00;;;;;;;7.09;100.00;99631.13;5040988;28;20039;-73
2022/11/23 02:54:09;;;;;;;8.77;6.57;;;;;;;7.09;100.00;99631.13;5056413;28;20523;-73
2022/11/23 02:56:34;;;;;;;8.98;5.55;;;;;;;7.04;100.00;99623.75;5055798;28;20032;-73
2022/11/23 02:59:00;;;;;;;6.30;5.35;;;;;;;7.15;100.00;99630.50;5074613;28;20035;-73
2022/11/23 03:01:26;;;;;;;8.32;6.47;;;;;;;7.04;100.00;99615.06;5040360;28;20057;-73
2022/11/23 03:03:52;;;;;;;9.15;5.03;;;;;;;7.18;100.00;99632.81;5074583;28;20449;-73
2022/11/23 03:06:17;;;;;;;8.77;5.28;;;;;;;7.09;100.00;99618.03;5059186;28;20028;-74
2022/11/23 03:08:42;;;;;;;8.88;5.32;;;;;;;7.11;100.00;99622.13;5042957;28;20515;-75
2022/11/23 03:11:08;;;;;;;10.57;4.65;;;;;;;7.21;100.00;99632.50;5056647;28;20037;-75
2022/11/23 03:13:33;;;;;;;6.60;5.07;;;;;;;7.16;100.00;99633.00;5057724;28;20139;-75
2022/11/23 03:15:58;;;;;;;7.63;5.65;;;;;;;7.22;100.00;99639.41;5055714;28;20119;-75
2022/11/23 03:18:24;;;;;;;6.05;4.93;;;;;;;7.21;100.00;99635.13;5058162;28;20031;-75
2022/11/23 03:20:50;;;;;;;7.97;6.97;;;;;;;7.21;100.00;99637.75;5073849;28;20032;-74
2022/11/23 03:23:15;;;;;;;9.45;5.45;;;;;;;7.22;100.00;99634.16;5056353;28;20052;-76
2022/11/23 03:25:40;;;;;;;8.93;5.07;;;;;;;7.16;100.00;99625.13;5073480;28;20127;-74
2022/11/23 03:28:06;;;;;;;5.57;4.97;;;;;;;7.15;100.00;99633.13;5037631;28;20174;-76
2022/11/23 03:30:31;;;;;;;6.15;5.05;;;;;;;7.08;100.00;99625.06;5072593;28;20036;-74
2022/11/23 03:32:56;;;;;;;5.68;4.60;;;;;;;7.21;100.00;99648.25;5038998;28;20392;-74
2022/11/23 03:35:22;;;;;;;5.75;4.72;;;;;;;7.06;100.00;99619.16;5056235;28;20156;-74
2022/11/23 03:37:48;;;;;;;5.60;4.75;;;;;;;7.21;100.00;99643.00;5056624;28;20039;-75
2022/11/23 03:40:13;;;;;;;7.25;4.30;;;;;;;7.32;100.00;99652.41;5039912;28;20036;-75
2022/11/23 03:42:39;;;;;;;6.45;4.93;;;;;;;7.32;100.00;99655.03;5072082;28;20067;-75
2022/11/23 03:45:05;;;;;;;7.00;4.43;;;;;;;7.18;100.00;99623.13;5056618;28;20031;-75
2022/11/23 03:47:31;;;;;;;8.43;5.05;;;;;;;7.32;100.00;99655.03;5044263;28;20024;-76
2022/11/23 03:49:56;;;;;;;9.18;5.32;;;;;;;7.29;100.00;99655.31;5075196;28;20036;-75
2022/11/23 03:52:22;;;;;;;6.28;4.80;;;;;;;7.22;100.00;99636.78;5073182;28;20056;-74
2022/11/23 03:54:47;;;;;;;5.05;4.57;;;;;;;7.30;100.00;99657.81;5074438;28;20768;-74
2022/11/23 03:57:13;;;;;;;7.35;4.43;;;;;;;7.37;100.00;99663.25;5076339;28;20081;-74
2022/11/23 03:59:38;;;;;;;6.25;4.50;;;;;;;7.35;100.00;99655.50;5053766;28;20025;-74
2022/11/23 04:02:04;;;;;;;8.35;5.05;;;;;;;7.28;100.00;99645.81;5037384;28;20035;-76
2022/11/23 04:04:30;;;;;;;8.30;4.75;;;;;;;7.41;100.00;99660.13;5056594;28;20029;-74
2022/11/23 04:06:55;;;;;;;7.55;5.95;;;;;;;7.34;100.00;99642.56;5059252;28;20186;-76
2022/11/23 04:09:21;;;;;;;8.05;5.20;;;;;;;7.21;100.00;99627.25;5060731;28;20411;-74
2022/11/23 04:11:46;;;;;;;5.97;4.53;;;;;;;7.21;100.00;99635.94;5043512;28;20412;-75
2022/11/23 04:14:11;;;;;;;7.25;3.80;;;;;;;7.27;100.00;99647.59;5040170;28;20031;-75
2022/11/23 04:16:37;;;;;;;6.28;4.78;;;;;;;7.28;100.00;99637.94;5060031;28;20040;-75
2022/11/23 04:19:02;;;;;;;5.28;3.70;;;;;;;7.26;100.00;99648.59;5056849;28;20040;-76
2022/11/23 04:21:27;;;;;;;8.02;5.05;;;;;;;7.31;100.00;99656.81;5060904;28;20059;-75
2022/11/23 04:23:53;;;;;;;4.65;3.72;;;;;;;7.30;100.00;99657.81;5057385;28;20427;-74
2022/11/23 04:26:18;;;;;;;9.32;4.88;;;;;;;7.15;100.00;99641.81;5076954;28;20073;-76
2022/11/23 04:28:43;;;;;;;8.45;4.13;;;;;;;7.33;100.00;99657.47;5057578;28;20035;-75
2022/11/23 04:31:09;;;;;;;4.25;3.85;;;;;;;7.34;100.00;99664.38;5078990;28;20063;-75
2022/11/23 04:33:34;;;;;;;6.18;4.88;;;;;;;7.38;100.00;99660.47;5057275;28;20029;-74
2022/11/23 04:36:00;;;;;;;6.60;5.22;;;;;;;7.36;100.00;99644.06;5059221;28;20033;-75
2022/11/23 04:38:25;;;;;;;7.63;4.40;;;;;;;7.47;100.00;99663.09;5059406;28;20053;-74
2022/11/23 04:40:51;;;;;;;7.50;5.25;;;;;;;7.46;100.00;99661.47;5061742;28;20032;-75
2022/11/23 04:43:16;;;;;;;6.03;3.83;;;;;;;7.43;100.00;99667.06;5076645;28;20028;-75
2022/11/23 04:45:41;;;;;;;5.10;3.90;;;;;;;7.40;100.00;99657.66;5059835;28;20025;-75
2022/11/23 04:48:07;;;;;;;6.00;4.07;;;;;;;7.39;100.00;99658.66;5075278;28;20364;-75
2022/11/23 04:50:33;;;;;;;6.38;3.92;;;;;;;7.41;100.00;99665.38;5079275;28;20029;-75
2022/11/23 04:52:58;;;;;;;7.72;4.65;;;;;;;7.46;100.00;99657.03;5060082;28;20493;-75
2022/11/23 04:55:24;;;;;;;7.25;6.13;;;;;;;7.48;100.00;99659.50;5059938;28;20036;-75
2022/11/23 04:57:49;;;;;;;7.47;4.10;;;;;;;7.51;100.00;99661.81;5077833;28;20081;-75
2022/11/23 05:00:15;;;;;;;6.00;4.50;;;;;;;7.50;100.00;99652.28;5079179;28;20070;-75
2022/11/23 05:02:40;;;;;;;6.28;4.18;;;;;;;7.57;100.00;99669.06;5040793;28;20397;-75
2022/11/23 05:05:06;;;;;;;8.48;4.82;;;;;;;7.51;100.00;99665.28;5075207;28;20055;-75
2022/11/23 05:07:31;;;;;;;9.05;5.55;;;;;;;7.38;100.00;99638.63;5077263;28;20028;-75
2022/11/23 05:09:57;;;;;;;5.40;4.00;;;;;;;7.52;100.00;99660.84;5057802;28;20025;-75
2022/11/23 05:12:22;;;;;;;7.35;5.10;;;;;;;7.38;100.00;99636.84;5059560;28;20028;-75
2022/11/23 05:14:47;;;;;;;6.82;5.93;;;;;;;7.40;100.00;99648.00;5038154;28;20036;-75
2022/11/23 05:17:13;;;;;;;6.22;3.22;;;;;;;7.47;100.00;99657.84;5057991;28;20131;-75
2022/11/23 05:19:38;;;;;;;6.43;5.20;;;;;;;7.53;100.00;99657.22;5057905;28;20029;-75
2022/11/23 05:22:03;;;;;;;9.35;3.95;;;;;;;7.48;100.00;99657.69;5076068;28;20561;-75
2022/11/23 05:24:30;;;;;;;10.13;5.47;;;;;;;7.44;100.00;99659.00;5036252;28;20099;-74
2022/11/23 05:26:55;;;;;;;6.57;3.90;;;;;;;7.40;100.00;99661.13;5037024;28;20112;-74
2022/11/23 05:29:21;;;;;;;10.10;6.00;;;;;;;7.43;100.00;99656.56;5035872;28;20033;-74
2022/11/23 05:31:46;;;;;;;8.68;5.40;;;;;;;7.31;100.00;99659.44;5034414;28;20039;-74
2022/11/23 05:34:11;;;;;;;10.23;5.85;;;;;;;7.31;100.00;99654.19;5018769;28;20038;-74
2022/11/23 05:36:37;;;;;;;13.13;5.47;;;;;;;7.38;100.00;99670.13;5036751;28;20029;-74
2022/11/23 05:39:02;;;;;;;7.13;6.15;;;;;;;7.41;100.00;99668.00;5017402;28;20040;-74
2022/11/23 05:41:28;;;;;;;7.60;4.93;;;;;;;7.37;100.00;99669.31;5035178;28;20025;-74
2022/11/23 05:43:53;;;;;;;10.55;5.72;;;;;;;7.31;100.00;99653.38;5033280;28;20052;-74
2022/11/23 05:46:18;;;;;;;9.32;5.10;;;;;;;7.26;100.00;99630.22;5034799;28;20033;-74
2022/11/23 05:48:44;;;;;;;7.72;5.43;;;;;;;7.34;100.00;99651.25;5050681;28;20040;-74
2022/11/23 05:51:09;;;;;;;12.48;6.38;;;;;;;7.33;100.00;99643.53;5034921;28;20048;-74
2022/11/23 05:53:35;;;;;;;8.00;3.92;;;;;;;7.41;100.00;99660.13;5035547;28;20039;-74
2022/11/23 05:56:01;;;;;;;9.13;5.82;;;;;;;7.34;100.00;99647.81;5037151;28;20083;-75
2022/11/23 05:58:27;;;;;;;9.60;5.60;;;;;;;7.41;100.00;99661.94;5035708;28;20036;-75
2022/11/23 06:00:58;;;;;;;8.50;5.70;;;;;;;7.32;100.00;99666.34;5048754;28;20033;-75
2022/11/23 06:03:23;;;;;;;7.90;5.47;;;;;;;7.35;100.00;99655.50;5034942;28;20061;-75
2022/11/23 06:05:48;;;;;;;15.32;6.15;;;;;;;7.36;100.00;99659.81;5034016;28;20137;-75
2022/11/23 06:08:14;;;;;;;6.75;5.25;;;;;;;7.46;100.00;99666.72;5034089;28;20559;-75
2022/11/23 06:10:39;;;;;;;7.45;5.30;;;;;;;7.28;100.00;99643.19;5032415;28;20041;-75
2022/11/23 06:13:04;;;;;;;14.68;6.85;;;;;;;7.52;100.00;99676.59;5031330;28;20037;-75
2022/11/23 06:15:30;;;;;;;13.45;5.45;;;;;;;7.41;100.00;99660.13;5031388;28;20171;-75
2022/11/23 06:18:00;;;;;;;6.45;5.22;;;;;;;7.54;100.00;99672.00;5048297;28;20127;-75
2022/11/23 06:20:25;;;;;;;10.25;6.35;;;;;;;7.55;100.00;99676.25;5032588;28;20674;-75
2022/11/23 06:22:52;;;;;;;9.40;6.15;;;;;;;7.51;100.00;99688.91;5041129;28;20037;-75
2022/11/23 06:25:18;;;;;;;10.38;5.50;;;;;;;7.60;100.00;99681.88;5053278;28;20436;-75
2022/11/23 06:27:52;;;;;;;12.13;7.20;;;;;;;7.56;100.00;99680.53;5049912;28;20033;-74
2022/11/23 06:30:17;;;;;;;16.30;8.05;;;;;;;7.63;100.00;99678.91;5051069;28;20123;-74
2022/11/23 06:32:42;;;;;;;11.68;6.00;;;;;;;7.66;100.00;99686.47;5046474;28;20147;-75
2022/11/23 06:35:08;;;;;;;14.63;6.18;;;;;;;7.62;100.00;99672.84;5047166;28;20032;-75
2022/11/23 06:37:33;;;;;;;13.32;6.95;;;;;;;7.72;100.00;99683.22;5015280;28;20032;-75
2022/11/23 06:39:59;;;;;;;20.15;8.98;;;;;;;7.62;100.00;99672.84;5048288;28;20090;-75
2022/11/23 06:42:24;;;;;;;10.73;6.53;;;;;;;7.58;100.00;99661.03;5018459;28;20041;-75
2022/11/23 06:44:49;;;;;;;10.23;6.82;;;;;;;7.72;100.00;99688.47;5030543;28;20064;-75
2022/11/23 06:47:15;;;;;;;7.18;4.80;;;;;;;7.57;100.00;99661.16;5050700;28;20037;-75
2022/11/23 06:49:40;;;;;;;17.17;6.40;;;;;;;7.71;100.00;99683.34;5010312;28;20075;-75
2022/11/23 06:52:06;;;;;;;7.43;5.25;;;;;;;7.67;100.00;99693.38;5031385;28;20029;-75
2022/11/23 06:54:31;;;;;;;10.23;6.82;;;;;;;7.54;100.00;99674.63;5051045;28;20301;-75
2022/11/23 06:56:56;;;;;;;13.40;7.47;;;;;;;7.66;100.00;99694.34;5019024;28;20113;-75
2022/11/23 06:59:22;;;;;;;17.15;6.88;;;;;;;7.67;100.00;99695.19;5045904;28;20036;-75
2022/11/23 07:01:49;;;;;;;11.20;7.97;;;;;;;7.59;100.00;99685.47;5048982;28;20024;-75
2022/11/23 07:04:15;;;;;;;11.55;5.78;;;;;;;7.64;100.00;99683.19;5049675;28;20047;-75
2022/11/23 07:06:40;;;;;;;9.25;5.55;;;;;;;7.56;100.00;99676.13;5050623;28;21864;-75
2022/11/23 07:09:06;;;;;;;9.73;4.95;;;;;;;7.69;100.00;99690.59;5051243;28;20039;-75
2022/11/23 07:11:31;;;;;;;10.32;4.65;;;;;;;7.55;100.00;99673.63;5050597;28;20043;-75
2022/11/23 07:13:57;;;;;;;5.85;4.50;;;;;;;7.68;100.00;99697.63;5033690;28;20028;-75
2022/11/23 07:16:22;;;;;;;11.98;4.38;;;;;;;7.69;100.00;99703.75;5050152;28;20029;-75
2022/11/23 07:18:48;;;;;;;9.50;5.63;;;;;;;7.65;100.00;99707.66;5051650;28;20107;-75
2022/11/23 07:21:13;;;;;;;14.30;4.75;;;;;;;7.66;100.00;99706.66;5033871;28;20033;-75
2022/11/23 07:23:40;;;;;;;8.35;5.55;;;;;;;7.60;100.00;99713.38;5066390;28;20070;-75
2022/11/23 07:26:07;;;;;;;6.03;4.05;;;;;;;7.47;100.00;99694.59;5055953;28;20031;-75
2022/11/23 07:28:33;;;;;;;7.43;4.38;;;;;;;7.60;100.00;99718.63;5070793;28;20107;-75
2022/11/23 07:30:58;;;;;;;11.95;5.10;;;;;;;7.50;100.00;99703.00;5073573;28;20024;-75
2022/11/23 07:33:24;;;;;;;7.93;4.72;;;;;;;7.53;100.00;99722.84;5055821;28;20476;-75
2022/11/23 07:35:49;;;;;;;25.65;4.97;;;;;;;7.46;100.00;99704.28;5056024;28;20040;-75
2022/11/23 07:38:14;;;;;;;12.18;6.43;;;;;;;7.47;100.00;99705.09;5023339;28;20042;-75
2022/11/23 07:40:40;;;;;;;9.38;4.85;;;;;;;7.41;100.00;99706.56;5054846;28;20549;-75
2022/11/23 07:43:06;;;;;;;5.13;3.90;;;;;;;7.55;100.00;99731.41;5056227;28;20035;-75
2022/11/23 07:45:32;;;;;;;5.50;3.80;;;;;;;7.49;100.00;99737.28;5037575;28;20083;-75
2022/11/23 07:48:03;;;;;;;5.25;4.40;;;;;;;7.54;100.00;99742.91;5071408;28;20038;-75
2022/11/23 07:50:28;;;;;;;;;;;;;;;7.54;100.00;99748.97;5055685;28;20028;-75
2022/11/23 07:52:54;;;;;;;11.57;4.50;;;;;;;7.47;100.00;99731.34;5073660;28;19916;-75
2022/11/23 07:55:19;;;;;;;8.50;4.65;;;;;;;7.50;100.00;99741.56;5054033;28;20035;-75
2022/11/23 07:57:45;;;;;;;5.57;3.92;;;;;;;7.46;100.00;99741.03;5054924;28;20043;-75
2022/11/23 08:00:11;;;;;;;5.10;4.05;;;;;;;7.38;100.00;99747.09;5040383;28;20118;-75
2022/11/23 08:02:37;;;;;;;10.88;4.05;;;;;;;7.41;100.00;99738.06;5055040;28;20027;-75
2022/11/23 08:05:02;;;;;;;4.43;3.40;;;;;;;7.45;100.00;99741.19;5054908;28;20577;-75
2022/11/23 08:07:28;;;;;;;20.52;5.38;;;;;;;7.38;100.00;99749.72;5022041;28;20089;-75
2022/11/23 08:09:53;;;;;;;9.00;3.35;;;;;;;7.40;100.00;99737.25;5054498;28;20032;-76
2022/11/23 08:12:19;;;;;;;4.95;3.42;;;;;;;7.49;100.00;99760.91;5040703;28;20056;-75
2022/11/23 08:14:44;;;;;;;4.43;3.58;;;;;;;7.52;100.00;99760.59;5071981;28;20025;-74
2022/11/23 08:17:09;;;;;;;5.22;2.50;;;;;;;7.54;100.00;99771.78;5070946;28;20070;-75
2022/11/23 08:19:35;;;;;;;5.38;3.03;;;;;;;7.55;100.00;99753.22;5071192;28;20074;-75
2022/11/23 08:22:00;;;;;;;6.05;3.47;;;;;;;7.60;100.00;99764.09;5070737;28;20456;-74
2022/11/23 08:24:26;;;;;;;4.85;2.70;;;;;;;7.56;100.00;99756.69;5055222;28;20048;-75
2022/11/23 08:26:51;;;;;;;8.68;3.50;;;;;;;7.60;100.00;99760.66;5053530;28;20466;-75
2022/11/23 08:29:16;;;;;;;7.78;3.50;;;;;;;7.63;100.00;99766.41;5053465;28;20042;-75
2022/11/23 08:31:42;;;;;;;5.45;3.00;;;;;;;7.71;100.00;99762.16;5053786;28;20108;-75
2022/11/23 08:34:08;;;;;;;8.38;3.05;;;;;;;7.73;100.00;99768.91;5052750;28;20060;-74
2022/11/23 08:36:33;;;;;;;6.00;3.72;;;;;;;7.71;100.00;99762.16;5036504;28;20044;-77
2022/11/23 08:38:58;;;;;;;2.95;2.00;;;;;;;7.68;100.00;99760.66;5070229;28;20041;-74
2022/11/23 08:41:24;;;;;;;2.97;1.90;;;;;;;7.70;100.00;99758.72;5038482;28;20516;-74
2022/11/23 08:43:50;;;;;;;2.75;1.95;;;;;;;7.48;100.00;99733.84;5073018;28;20427;-75
2022/11/23 08:46:16;;;;;;;4.38;2.35;;;;;;;7.73;100.00;99754.94;5070178;28;20024;-75
2022/11/23 08:48:41;;;;;;;3.92;2.85;;;;;;;7.69;100.00;99754.44;5054877;28;20424;-76
2022/11/23 08:51:07;;;;;;;4.10;2.75;;;;;;;7.71;100.00;99755.13;5038606;28;20036;-75
2022/11/23 08:53:33;;;;;;;3.85;2.47;;;;;;;7.71;100.00;99754.28;5074948;28;20114;-74
2022/11/23 08:56:03;;;;;;;2.13;1.92;;;;;;;7.70;100.00;99748.19;5040718;28;20025;-74
2022/11/23 08:58:28;;;;;;;7.03;2.80;;;;;;;7.84;100.00;99759.94;5074797;28;20032;-74
2022/11/23 09:00:54;;;;;;;2.92;2.35;;;;;;;7.95;100.00;99756.19;5057631;28;20504;-76
2022/11/23 09:03:19;;;;;;;3.50;2.45;;;;;;;8.04;100.00;99758.66;5042641;28;20036;-75
2022/11/23 09:05:44;;;;;;;6.13;2.80;;;;;;;8.10;100.00;99759.84;5075139;28;20034;-74
2022/11/23 09:08:10;;;;;;;11.85;2.70;;;;;;;8.15;100.00;99752.28;5056756;28;20031;-75
2022/11/23 09:10:36;;;;;;;6.93;2.25;;;;;;;8.12;100.00;99742.09;5040142;28;20020;-75
2022/11/23 09:13:02;;;;;;;5.68;2.25;;;;;;;8.29;100.00;99755.25;5075201;28;20032;-75
2022/11/23 09:15:27;;;;;;;1.70;1.52;;;;;;;8.38;100.00;99738.50;5076196;28;20502;-76
2022/11/23 09:17:52;;;;;;;6.82;2.75;;;;;;;8.81;100.00;99745.28;5074281;28;20040;-75
2022/11/23 09:20:18;;;;;;;2.80;1.80;;;;;;;9.39;100.00;99753.91;5057221;28;20341;-76
2022/11/23 09:22:48;;;;;;;5.15;3.28;;;;;;;9.44;100.00;99732.34;5073890;28;20677;-75
2022/11/23 09:25:14;;;;;;;8.60;2.25;;;;;;;9.34;100.00;99732.56;5074497;28;20429;-75
2022/11/23 09:27:39;;;;;;;6.30;2.50;;;;;;;9.94;100.00;99727.69;5039081;28;20086;-76
2022/11/23 09:30:05;;;;;;;6.38;3.00;;;;;;;10.52;100.00;99736.91;5055623;28;20063;-75
2022/11/23 09:32:31;;;;;;;4.15;1.98;;;;;;;10.80;100.00;99733.69;5074377;28;20107;-76
2022/11/23 09:34:57;;;;;;;6.88;2.80;;;;;;;10.12;100.00;99709.78;5056212;28;20389;-75
2022/11/23 09:37:22;;;;;;;3.78;2.22;;;;;;;9.88;100.00;99722.09;5054090;28;20024;-75
2022/11/23 09:39:47;;;;;;;5.28;1.83;;;;;;;9.47;100.00;99727.56;5056459;28;20035;-75
2022/11/23 09:42:29;;;;;;;4.43;2.13;;;;;;;9.30;100.00;99728.59;5073723;28;20074;-75
2022/11/23 09:45:07;;;;;;;;;;;;;;;9.15;100.00;99736.38;5074310;28;20020;-75
2022/11/23 09:47:54;;;;;;;12.15;2.92;;;;;;;8.97;100.00;99731.31;5072685;28;19989;-75
2022/11/23 09:50:25;;;;;;;4.60;1.83;;;;;;;8.98;100.00;99734.75;5073615;28;20032;-75
2022/11/23 09:52:52;;;;;;;1.70;1.45;;;;;;;8.76;100.00;99744.97;5054440;28;20506;-75
2022/11/23 09:55:40;;;;;;;3.55;1.92;;;;;;;8.72;100.00;99721.78;5073028;28;20401;-75
2022/11/23 09:58:10;;;;;;;2.63;1.48;;;;;;;9.03;100.00;99751.69;5074689;28;20400;-75
2022/11/23 10:00:47;;;;;;;5.05;1.83;;;;;;;9.29;100.00;99724.31;5074746;28;20024;-75
2022/11/23 10:03:15;;;;;;;3.42;2.08;;;;;;;9.35;100.00;99739.44;5055391;28;20082;-75
2022/11/23 10:05:46;;;;;;;2.67;1.80;;;;;;;9.12;100.00;99725.34;5058221;28;20464;-76
2022/11/23 10:08:25;;;;;;;2.13;1.70;;;;;;;9.10;100.00;99730.78;5073650;28;20391;-75
2022/11/23 10:11:01;;;;;;;4.10;2.15;;;;;;;8.95;100.00;99728.03;5074596;28;20074;-76
2022/11/23 10:13:37;;;;;;;2.60;1.13;;;;;;;8.98;100.00;99738.22;5057358;28;20028;-75
2022/11/23 10:16:30;;;;;;;6.15;2.08;;;;;;;9.43;100.00;99731.53;5055349;28;20050;-75
2022/11/23 10:19:12;;;;;;;10.25;1.80;;;;;;;9.67;100.00;99716.63;5075303;28;20059;-75
2022/11/23 10:22:01;;;;;;;2.28;1.40;;;;;;;9.48;100.00;99728.38;5072724;28;20032;-75
2022/11/23 10:24:34;;;;;;;4.65;1.45;;;;;;;9.35;100.00;99718.38;5075030;28;20055;-75
2022/11/23 10:27:01;;;;;;;5.43;1.50;;;;;;;9.20;100.00;99714.81;5073108;28;20044;-75
2022/11/23 10:29:34;;;;;;;3.33;2.28;;;;;;;9.01;100.00;99714.19;5041133;28;20028;-76
2022/11/23 10:31:59;;;;;;;7.97;1.55;;;;;;;9.05;100.00;99718.13;5075147;28;20029;-76
2022/11/23 10:34:33;;;;;;;4.35;2.85;;;;;;;8.87;100.00;99704.34;5072365;28;20389;-76
2022/11/23 10:36:58;;;;;;;9.40;2.28;;;;;;;8.90;100.00;99717.16;5054082;28;20123;-76
2022/11/23 10:39:27;;;;;;;5.25;1.88;;;;;;;9.06;100.00;99718.97;5056439;28;20420;-76
2022/11/23 10:42:00;;;;;;;6.90;2.58;;;;;;;9.04;100.00;99721.75;5056498;28;20077;-75
2022/11/23 10:44:30;;;;;;;2.58;1.80;;;;;;;8.94;100.00;99715.84;5071893;28;20023;-75
2022/11/23 10:46:56;;;;;;;4.53;2.70;;;;;;;9.00;100.00;99695.94;5072204;28;20030;-75
2022/11/23 10:49:33;;;;;;;4.43;2.00;;;;;;;8.99;100.00;99716.19;5039954;28;20329;-75
2022/11/23 10:52:04;;;;;;;3.72;2.05;;;;;;;8.93;100.00;99722.09;5055191;28;20077;-75
2022/11/23 10:54:40;;;;;;;3.70;1.50;;;;;;;8.78;100.00;99718.50;5056052;28;20565;-76
2022/11/23 10:57:28;;;;;;;4.53;2.25;;;;;;;8.67;100.00;99706.50;5056316;28;20032;-76
2022/11/23 11:00:18;;;;;;;2.40;1.33;;;;;;;8.89;100.00;99715.53;5056425;28;20024;-76
2022/11/23 11:02:57;;;;;;;4.20;1.55;;;;;;;8.90;100.00;99719.78;5073330;28;20360;-76
2022/11/23 11:05:31;;;;;;;1.52;1.42;;;;;;;9.04;100.00;99726.19;5072994;28;20532;-75
2022/11/23 11:08:00;;;;;;;2.63;1.83;;;;;;;8.96;100.00;99718.31;5054603;28;20136;-75
2022/11/23 11:10:33;;;;;;;8.60;2.22;;;;;;;8.94;100.00;99709.78;5054328;28;20024;-75
2022/11/23 11:12:58;;;;;;;5.18;2.50;;;;;;;8.94;100.00;99713.22;5054016;28;20123;-75
2022/11/23 11:15:24;;;;;;;6.47;1.70;;;;;;;8.91;100.00;99699.59;5056466;28;20503;-75
2022/11/23 11:17:57;;;;;;;1.85;1.42;;;;;;;8.79;100.00;99686.75;5072233;28;20024;-75
2022/11/23 11:20:31;;;;;;;3.95;2.22;;;;;;;8.82;100.00;99701.41;5072004;28;20451;-75
2022/11/23 11:22:59;;;;;;;5.65;2.08;;;;;;;8.90;100.00;99698.75;5073551;28;20040;-75
2022/11/23 11:25:36;;;;;;;9.32;1.77;;;;;;;8.65;100.00;99671.66;5072154;28;20487;-75
2022/11/23 11:28:17;;;;;;;3.75;1.52;;;;;;;8.74;100.00;99669.84;5070124;28;20067;-75
2022/11/23 11:30:54;;;;;;;2.47;1.48;;;;;;;8.74;100.00;99670.66;5053770;28;20408;-75
2022/11/23 11:33:37;;;;;;;2.45;1.45;;;;;;;8.82;100.00;99680.38;5070915;28;20016;-76
2022/11/23 11:36:05;;;;;;;3.90;1.10;;;;;;;8.95;100.00;99685.06;5071912;28;20032;-76